createdAt,value
2022-11-15T00:00:04.836Z,43.00
2022-11-15T00:02:52.241Z,44.50
2022-11-15T00:05:40.189Z,45.75
2022-11-15T00:08:27.583Z,48.00
2022-11-15T00:11:15.278Z,41.50
2022-11-15T00:14:04.619Z,44.00
2022-11-15T00:16:52.643Z,46.50
2022-11-15T00:19:41.311Z,45.75
2022-11-15T00:22:34.296Z,48.25
2022-11-15T00:25:21.692Z,46.75
2022-11-15T00:28:09.493Z,49.50
2022-11-15T00:30:58.182Z,45.75
2022-11-15T00:33:47.546Z,45.25
2022-11-15T00:36:38.000Z,46.00
2022-11-15T00:39:26.414Z,43.00
2022-11-15T00:42:17.239Z,44.75
2022-11-15T00:45:05.797Z,46.50
2022-11-15T00:47:53.647Z,49.00
2022-11-15T00:50:42.187Z,46.50
2022-11-15T00:53:30.217Z,49.00
2022-11-15T00:56:18.179Z,41.50
2022-11-15T00:59:05.617Z,42.25
2022-11-15T01:01:54.446Z,41.25
2022-11-15T01:04:41.909Z,48.00
2022-11-15T01:07:29.523Z,47.00
2022-11-15T01:10:18.506Z,48.50
2022-11-15T01:13:06.107Z,43.75
2022-11-15T01:15:53.644Z,52.50
2022-11-15T01:18:42.082Z,43.50
2022-11-15T01:21:29.659Z,47.75
2022-11-15T01:24:17.395Z,49.00
2022-11-15T01:27:04.800Z,50.75
2022-11-15T01:29:52.471Z,52.00
2022-11-15T01:32:40.221Z,53.25
2022-11-15T01:35:27.937Z,60.25
2022-11-15T01:38:15.341Z,52.25
2022-11-15T01:41:03.314Z,55.50
2022-11-15T01:44:19.679Z,55.75
2022-11-15T01:47:11.992Z,56.50
2022-11-15T01:50:09.466Z,53.50
2022-11-15T01:52:58.209Z,57.75
2022-11-15T01:55:46.228Z,59.25
2022-11-15T01:58:34.521Z,48.50
2022-11-15T02:01:22.533Z,53.00
2022-11-15T02:04:15.432Z,55.75
2022-11-15T02:07:04.690Z,55.50
2022-11-15T02:09:53.563Z,51.25
2022-11-15T02:12:41.091Z,52.75
2022-11-15T02:15:31.691Z,55.25
2022-11-15T02:18:29.478Z,49.25
2022-11-15T02:21:32.358Z,48.50
2022-11-15T02:24:32.519Z,54.00
2022-11-15T02:27:22.777Z,50.25
2022-11-15T02:30:24.729Z,54.00
2022-11-15T02:33:21.184Z,48.75
2022-11-15T02:36:11.654Z,47.50
2022-11-15T02:39:01.754Z,49.25
2022-11-15T02:41:54.465Z,48.75
2022-11-15T02:44:46.310Z,56.25
2022-11-15T02:47:37.566Z,49.25
2022-11-15T02:50:28.143Z,50.50
2022-11-15T02:53:18.519Z,45.25
2022-11-15T02:56:05.933Z,49.50
2022-11-15T02:59:09.073Z,40.00
2022-11-15T03:01:57.243Z,46.75
2022-11-15T03:04:48.059Z,48.50
2022-11-15T03:07:40.570Z,46.00
2022-11-15T03:10:38.954Z,46.00
2022-11-15T03:13:33.991Z,47.50
2022-11-15T03:16:36.922Z,45.50
2022-11-15T03:19:24.477Z,48.50
2022-11-15T03:22:14.440Z,44.75
2022-11-15T03:25:05.092Z,41.75
2022-11-15T03:27:57.681Z,38.75
2022-11-15T03:30:48.077Z,39.25
2022-11-15T03:33:35.594Z,40.00
2022-11-15T03:36:24.898Z,37.75
2022-11-15T03:39:16.273Z,44.75
2022-11-15T03:42:10.004Z,34.50
2022-11-15T03:45:16.547Z,43.75
2022-11-15T03:48:03.783Z,45.50
2022-11-15T03:50:51.657Z,35.25
2022-11-15T03:53:38.912Z,42.00
2022-11-15T03:56:25.933Z,36.25
2022-11-15T03:59:13.465Z,38.25
2022-11-15T04:02:01.659Z,36.25
2022-11-15T04:04:48.880Z,46.25
2022-11-15T04:07:38.210Z,37.50
2022-11-15T04:10:26.244Z,38.50
2022-11-15T04:13:13.907Z,40.00
2022-11-15T04:16:01.136Z,42.25
2022-11-15T04:19:09.110Z,38.25
2022-11-15T04:22:14.433Z,36.75
2022-11-15T04:25:02.281Z,38.50
2022-11-15T04:27:49.769Z,43.00
2022-11-15T04:30:37.818Z,42.75
2022-11-15T04:33:25.388Z,35.50
2022-11-15T04:36:31.148Z,39.00
2022-11-15T04:39:18.945Z,34.50
2022-11-15T04:42:06.848Z,37.50
2022-11-15T04:44:54.993Z,34.75
2022-11-15T04:47:42.261Z,33.25
2022-11-15T04:50:30.469Z,31.50
2022-11-15T04:53:18.325Z,31.25
2022-11-15T04:56:06.927Z,35.75
2022-11-15T04:58:55.058Z,30.00
2022-11-15T05:01:45.023Z,36.25
2022-11-15T05:04:33.355Z,34.00
2022-11-15T05:07:21.027Z,33.25
2022-11-15T05:10:10.275Z,29.75
2022-11-15T05:12:57.675Z,30.00
2022-11-15T05:15:46.036Z,28.25
2022-11-15T05:18:34.900Z,25.75
2022-11-15T05:21:23.410Z,33.00
2022-11-15T05:24:13.724Z,25.00
2022-11-15T05:27:01.445Z,23.25
2022-11-15T05:29:48.999Z,29.25
2022-11-15T05:32:39.563Z,30.75
2022-11-15T05:35:36.925Z,31.00
2022-11-15T05:38:26.010Z,20.00
2022-11-15T05:41:14.562Z,30.75
2022-11-15T05:44:04.581Z,22.00
2022-11-15T05:46:53.551Z,24.00
2022-11-15T05:49:43.349Z,25.25
2022-11-15T05:52:32.220Z,24.25
2022-11-15T05:55:20.752Z,22.75
2022-11-15T05:58:11.593Z,24.00
2022-11-15T06:00:59.669Z,23.50
2022-11-15T06:03:51.068Z,26.00
2022-11-15T06:06:40.450Z,24.00
2022-11-15T06:09:28.032Z,23.00
2022-11-15T06:12:16.127Z,23.50
2022-11-15T06:15:03.339Z,23.50
2022-11-15T06:17:50.840Z,20.00
2022-11-15T06:20:38.537Z,23.25
2022-11-15T06:23:26.416Z,22.25
2022-11-15T06:26:14.059Z,20.00
2022-11-15T06:29:01.906Z,21.50
2022-11-15T06:31:49.150Z,20.75
2022-11-15T06:34:38.183Z,19.50
2022-11-15T06:37:25.634Z,22.00
2022-11-15T06:40:13.847Z,21.00
2022-11-15T06:43:01.821Z,29.25
2022-11-15T06:45:49.965Z,28.00
2022-11-15T06:48:38.517Z,21.75
2022-11-15T06:51:26.115Z,23.00
2022-11-15T06:54:13.970Z,20.25
2022-11-15T06:57:01.820Z,21.75
2022-11-15T06:59:49.234Z,20.50
2022-11-15T07:02:38.191Z,19.50
2022-11-15T07:05:25.546Z,22.75
2022-11-15T07:08:13.989Z,21.00
2022-11-15T07:11:02.778Z,20.75
2022-11-15T07:13:50.530Z,22.75
2022-11-15T07:16:39.037Z,19.00
2022-11-15T07:19:26.873Z,23.75
2022-11-15T07:22:14.615Z,22.00
2022-11-15T07:25:03.271Z,21.25
2022-11-15T07:27:57.475Z,24.00
2022-11-15T07:30:45.607Z,22.00
2022-11-15T07:33:33.291Z,17.50
2022-11-15T07:36:21.300Z,22.25
2022-11-15T07:39:08.759Z,23.00
2022-11-15T07:42:16.310Z,22.00
2022-11-15T07:45:04.506Z,17.75
2022-11-15T07:47:53.974Z,28.00
2022-11-15T07:50:44.845Z,22.50
2022-11-15T07:53:32.868Z,18.50
2022-11-15T07:56:20.445Z,19.00
2022-11-15T07:59:08.013Z,18.50
2022-11-15T08:01:55.640Z,18.00
2022-11-15T08:04:43.554Z,21.00
2022-11-15T08:07:32.655Z,18.75
2022-11-15T08:10:22.298Z,20.50
2022-11-15T08:13:12.306Z,24.00
2022-11-15T08:16:04.330Z,16.50
2022-11-15T08:18:51.921Z,19.75
2022-11-15T08:21:39.737Z,21.75
2022-11-15T08:24:28.356Z,18.00
2022-11-15T08:27:19.047Z,21.75
2022-11-15T08:30:06.886Z,18.75
2022-11-15T08:32:55.421Z,23.50
2022-11-15T08:35:43.894Z,19.00
2022-11-15T08:38:32.796Z,19.75
2022-11-15T08:41:27.862Z,22.25
2022-11-15T08:44:15.811Z,24.00
2022-11-15T08:47:03.122Z,19.75
2022-11-15T08:49:51.350Z,18.00
2022-11-15T08:52:38.806Z,21.75
2022-11-15T08:55:26.883Z,20.50
2022-11-15T08:58:14.118Z,24.00
2022-11-15T09:01:02.258Z,24.75
2022-11-15T09:03:50.133Z,23.00
2022-11-15T09:06:42.125Z,23.25
2022-11-15T09:09:30.403Z,24.25
2022-11-15T09:12:18.249Z,17.50
2022-11-15T09:15:07.300Z,25.00
2022-11-15T09:17:55.496Z,21.25
2022-11-15T09:20:43.147Z,26.25
2022-11-15T09:23:31.835Z,27.50
2022-11-15T09:26:19.297Z,21.25
2022-11-15T09:29:08.070Z,22.75
2022-11-15T09:31:56.974Z,19.00
2022-11-15T09:34:45.175Z,26.50
2022-11-15T09:37:34.475Z,32.00
2022-11-15T09:40:24.931Z,50.25
2022-11-15T09:43:30.809Z,40.50
2022-11-15T09:46:24.296Z,37.75
2022-11-15T09:49:16.923Z,72.75
2022-11-15T09:52:07.245Z,58.25
2022-11-15T09:54:52.691Z,56.75
2022-11-15T09:57:44.059Z,53.00
2022-11-15T10:03:20.787Z,59.25
2022-11-15T10:05:52.391Z,45.25
2022-11-15T10:08:31.330Z,47.75
2022-11-15T10:13:51.917Z,51.75
2022-11-15T10:16:44.087Z,48.00
2022-11-15T10:19:16.429Z,49.25
2022-11-15T10:22:00.866Z,48.75
2022-11-15T10:24:31.601Z,44.75
2022-11-15T10:27:00.909Z,43.75
2022-11-15T10:29:30.202Z,46.50
2022-11-15T10:31:59.518Z,51.25
2022-11-15T10:34:29.072Z,45.75
2022-11-15T10:37:00.528Z,51.25
2022-11-15T10:39:33.555Z,50.50
2022-11-15T10:42:25.883Z,54.75
2022-11-15T10:44:55.692Z,50.25
2022-11-15T10:47:39.023Z,55.00
2022-11-15T10:50:27.187Z,54.50
2022-11-15T10:52:56.614Z,57.50
2022-11-15T10:55:28.333Z,48.75
2022-11-15T10:58:03.442Z,47.75
2022-11-15T11:00:35.048Z,41.75
2022-11-15T11:03:05.935Z,51.25
2022-11-15T11:05:41.794Z,47.50
2022-11-15T11:08:14.994Z,47.50
2022-11-15T11:11:11.034Z,45.50
2022-11-15T11:13:41.778Z,44.25
2022-11-15T11:16:11.059Z,53.75
2022-11-15T11:18:49.232Z,51.50
2022-11-15T11:21:39.589Z,47.25
2022-11-15T11:24:15.279Z,52.25
2022-11-15T11:27:02.976Z,50.50
2022-11-15T11:29:48.068Z,46.00
2022-11-15T11:32:20.504Z,41.50
2022-11-15T11:35:09.052Z,46.25
2022-11-15T11:37:39.376Z,46.25
2022-11-15T11:40:11.588Z,47.75
2022-11-15T11:42:41.653Z,39.00
2022-11-15T11:45:17.775Z,43.50
2022-11-15T11:47:54.254Z,44.00
2022-11-15T11:50:30.279Z,51.00
2022-11-15T11:53:04.147Z,49.75
2022-11-15T11:55:50.994Z,45.75
2022-11-15T11:58:23.636Z,49.75
2022-11-15T12:00:55.305Z,41.75
2022-11-15T12:03:29.626Z,55.00
2022-11-15T12:06:09.451Z,39.75
2022-11-15T12:08:46.636Z,38.50
2022-11-15T12:11:28.788Z,47.25
2022-11-15T12:14:03.004Z,45.25
2022-11-15T12:16:34.742Z,50.25
2022-11-15T12:19:05.936Z,41.75
2022-11-15T12:21:39.678Z,50.75
2022-11-15T12:24:19.380Z,54.75
2022-11-15T12:27:07.879Z,55.00
2022-11-15T12:29:44.857Z,50.00
2022-11-15T12:32:22.202Z,48.75
2022-11-15T12:34:52.453Z,50.75
2022-11-15T12:37:46.890Z,53.25
2022-11-15T12:40:24.706Z,53.25
2022-11-15T12:43:17.426Z,58.00
2022-11-15T12:45:48.476Z,57.25
2022-11-15T12:48:21.574Z,59.50
2022-11-15T12:50:57.522Z,63.75
2022-11-15T12:53:27.895Z,56.50
2022-11-15T12:56:06.893Z,66.50
2022-11-15T12:58:57.110Z,61.25
2022-11-15T13:01:38.549Z,63.25
2022-11-15T13:04:17.157Z,62.75
2022-11-15T13:06:54.394Z,64.75
2022-11-15T13:09:33.301Z,59.75
2022-11-15T13:12:07.009Z,58.75
2022-11-15T13:14:51.999Z,63.00
2022-11-15T13:17:21.780Z,69.00
2022-11-15T13:19:56.148Z,64.50
2022-11-15T13:22:43.538Z,68.25
2022-11-15T13:25:21.854Z,65.75
2022-11-15T13:27:52.784Z,72.50
2022-11-15T13:30:25.224Z,65.50
2022-11-15T13:32:56.637Z,68.25
2022-11-15T13:35:30.574Z,71.25
2022-11-15T13:38:06.211Z,67.50
2022-11-15T13:40:39.866Z,72.75
2022-11-15T13:43:35.386Z,65.75
2022-11-15T13:46:20.075Z,68.25
2022-11-15T13:48:54.316Z,74.50
2022-11-15T13:51:33.203Z,71.25
2022-11-15T13:54:17.796Z,66.50
2022-11-15T13:56:50.613Z,74.00
2022-11-15T13:59:40.282Z,71.25
2022-11-15T14:02:17.837Z,72.25
2022-11-15T14:05:19.412Z,76.75
2022-11-15T14:08:24.413Z,65.00
2022-11-15T14:11:09.356Z,69.25
2022-11-15T14:13:39.136Z,68.00
2022-11-15T14:16:18.172Z,70.00
2022-11-15T14:18:57.076Z,70.00
2022-11-15T14:21:27.477Z,70.00
2022-11-15T14:24:16.848Z,75.50
2022-11-15T14:26:46.762Z,74.75
2022-11-15T14:29:30.019Z,71.50
2022-11-15T14:32:17.631Z,66.00
2022-11-15T14:34:47.592Z,71.00
2022-11-15T14:37:28.928Z,68.50
2022-11-15T14:39:58.824Z,70.00
2022-11-15T14:42:28.702Z,72.50
2022-11-15T14:44:58.561Z,73.25
2022-11-15T14:47:29.998Z,71.25
2022-11-15T14:49:59.708Z,69.75
2022-11-15T14:52:33.085Z,69.00
2022-11-15T14:55:04.679Z,73.50
2022-11-15T14:57:34.353Z,72.00
2022-11-15T15:00:04.728Z,71.50
2022-11-15T15:02:44.391Z,74.00
2022-11-15T15:05:24.330Z,71.50
2022-11-15T15:07:59.771Z,70.25
2022-11-15T15:10:40.066Z,70.00
2022-11-15T15:13:20.179Z,73.50
2022-11-15T15:15:50.553Z,70.25
2022-11-15T15:18:21.229Z,67.50
2022-11-15T15:20:55.244Z,71.00
2022-11-15T15:23:26.540Z,75.75
2022-11-15T15:25:56.353Z,74.25
2022-11-15T15:28:28.708Z,70.00
2022-11-15T15:31:02.851Z,73.25
2022-11-15T15:33:32.642Z,80.75
2022-11-15T15:36:02.595Z,67.50
2022-11-15T15:38:32.431Z,73.25
2022-11-15T15:41:04.309Z,71.50
2022-11-15T15:43:34.150Z,77.25
2022-11-15T15:46:03.948Z,75.50
2022-11-15T15:48:35.997Z,76.25
2022-11-15T15:51:12.116Z,75.00
2022-11-15T15:53:45.381Z,77.00
2022-11-15T15:56:15.185Z,73.00
2022-11-15T15:58:45.007Z,74.50
2022-11-15T16:01:14.722Z,77.75
2022-11-15T16:03:44.548Z,76.50
2022-11-15T16:06:34.261Z,75.25
2022-11-15T16:09:19.749Z,77.25
2022-11-15T16:11:50.170Z,74.25
2022-11-15T16:14:19.915Z,79.25
2022-11-15T16:16:49.712Z,77.25
2022-11-15T16:19:19.558Z,76.00
2022-11-15T16:21:49.336Z,72.50
2022-11-15T16:24:19.098Z,77.25
2022-11-15T16:26:49.788Z,74.25
2022-11-15T16:29:19.489Z,76.00
2022-11-15T16:31:48.986Z,72.50
2022-11-15T16:34:18.493Z,75.25
2022-11-15T16:36:48.113Z,70.75
2022-11-15T16:39:20.830Z,74.50
2022-11-15T16:41:50.256Z,72.75
2022-11-15T16:44:19.700Z,70.25
2022-11-15T16:46:53.189Z,71.25
2022-11-15T16:49:23.499Z,72.25
2022-11-15T16:51:53.265Z,75.50
2022-11-15T16:54:22.611Z,73.75
2022-11-15T16:56:51.952Z,73.25
2022-11-15T16:59:22.203Z,72.00
2022-11-15T17:01:54.179Z,70.25
2022-11-15T17:04:24.067Z,74.25
2022-11-15T17:06:53.483Z,72.25
2022-11-15T17:09:27.104Z,71.25
2022-11-15T17:11:56.672Z,72.25
2022-11-15T17:14:25.901Z,71.25
2022-11-15T17:16:57.754Z,69.50
2022-11-15T17:19:27.248Z,71.25
2022-11-15T17:21:56.496Z,73.00
2022-11-15T17:24:25.718Z,70.50
2022-11-15T17:26:54.992Z,67.50
2022-11-15T17:29:24.310Z,67.75
2022-11-15T17:31:53.642Z,64.50
2022-11-15T17:34:22.905Z,64.25
2022-11-15T17:36:52.281Z,61.75
2022-11-15T17:39:22.099Z,70.00
2022-11-15T17:41:51.530Z,65.75
2022-11-15T17:44:20.814Z,63.50
2022-11-15T17:46:50.128Z,67.75
2022-11-15T17:49:19.372Z,69.75
2022-11-15T17:51:50.133Z,64.50
2022-11-15T17:54:19.897Z,65.00
2022-11-15T17:56:49.077Z,64.75
2022-11-15T17:59:21.391Z,61.25
2022-11-15T18:01:51.272Z,62.00
2022-11-15T18:04:20.527Z,61.00
2022-11-15T18:06:49.764Z,59.75
2022-11-15T18:09:19.542Z,65.75
2022-11-15T18:11:52.603Z,64.75
2022-11-15T18:14:22.349Z,61.25
2022-11-15T18:16:51.646Z,62.75
2022-11-15T18:19:20.856Z,59.75
2022-11-15T18:21:59.270Z,59.25
2022-11-15T18:24:30.541Z,61.50
2022-11-15T18:27:01.126Z,58.50
2022-11-15T18:29:30.675Z,61.75
2022-11-15T18:32:00.219Z,61.75
2022-11-15T18:34:33.228Z,61.25
2022-11-15T18:37:03.960Z,57.50
2022-11-15T18:39:33.354Z,61.25
2022-11-15T18:42:03.009Z,58.25
2022-11-15T18:44:32.465Z,56.00
2022-11-15T18:47:01.734Z,55.25
2022-11-15T18:49:31.142Z,53.75
2022-11-15T18:52:00.431Z,60.25
2022-11-15T18:54:31.225Z,58.25
2022-11-15T18:57:01.324Z,59.75
2022-11-15T18:59:31.322Z,57.75
2022-11-15T19:02:00.501Z,56.25
2022-11-15T19:04:29.808Z,60.50
2022-11-15T19:06:59.049Z,56.75
2022-11-15T19:09:33.880Z,56.00
2022-11-15T19:12:03.096Z,52.25
2022-11-15T19:14:32.364Z,54.75
2022-11-15T19:17:01.586Z,54.75
2022-11-15T19:19:30.870Z,50.50
2022-11-15T19:22:00.189Z,54.50
2022-11-15T19:24:31.172Z,54.25
2022-11-15T19:27:00.445Z,52.50
2022-11-15T19:29:29.773Z,56.25
2022-11-15T19:31:59.025Z,50.50
2022-11-15T19:34:28.299Z,54.25
2022-11-15T19:36:57.619Z,46.50
2022-11-15T19:39:26.834Z,52.00
2022-11-15T19:41:56.118Z,45.50
2022-11-15T19:44:27.532Z,52.50
2022-11-15T19:46:56.945Z,48.25
2022-11-15T19:49:26.188Z,46.75
2022-11-15T19:51:55.455Z,50.00
2022-11-15T19:54:24.666Z,47.00
2022-11-15T19:56:53.994Z,51.25
2022-11-15T19:59:23.290Z,49.50
2022-11-15T20:01:52.632Z,48.25
2022-11-15T20:04:21.913Z,52.00
2022-11-15T20:06:51.216Z,46.25
2022-11-15T20:09:21.715Z,49.00
2022-11-15T20:11:51.192Z,48.50
2022-11-15T20:14:20.630Z,48.25
2022-11-15T20:16:54.060Z,46.25
2022-11-15T20:19:23.956Z,42.00
2022-11-15T20:21:53.185Z,48.50
2022-11-15T20:24:22.398Z,47.75
2022-11-15T20:26:51.724Z,39.50
2022-11-15T20:29:21.023Z,44.00
2022-11-15T20:31:50.255Z,42.75
2022-11-15T20:34:19.527Z,45.00
2022-11-15T20:36:48.902Z,47.75
2022-11-15T20:39:18.304Z,42.00
2022-11-15T20:41:47.657Z,39.50
2022-11-15T20:44:17.139Z,40.25
2022-11-15T20:46:46.423Z,49.00
2022-11-15T20:49:15.883Z,40.75
2022-11-15T20:51:45.136Z,45.25
2022-11-15T20:54:14.463Z,46.00
2022-11-15T20:56:43.827Z,42.25
2022-11-15T20:59:13.144Z,36.75
2022-11-15T21:01:42.459Z,41.75
2022-11-15T21:04:11.749Z,42.25
2022-11-15T21:06:44.719Z,43.75
2022-11-15T21:09:34.819Z,43.25
2022-11-15T21:12:13.386Z,42.25
2022-11-15T21:14:43.254Z,45.75
2022-11-15T21:17:12.829Z,45.00
2022-11-15T21:19:42.211Z,41.25
2022-11-15T21:22:14.052Z,39.50
2022-11-15T21:24:43.544Z,37.25
2022-11-15T21:27:12.817Z,41.75
2022-11-15T21:29:42.340Z,35.25
2022-11-15T21:32:11.975Z,44.75
2022-11-15T21:34:41.325Z,39.75
2022-11-15T21:37:12.275Z,37.25
2022-11-15T21:39:41.590Z,33.75
2022-11-15T21:42:10.873Z,34.50
2022-11-15T21:44:40.122Z,38.50
2022-11-15T21:47:09.342Z,34.00
2022-11-15T21:49:38.592Z,31.00
2022-11-15T21:52:07.878Z,38.50
2022-11-15T21:54:37.201Z,30.00
2022-11-15T21:57:06.529Z,37.25
2022-11-15T21:59:35.749Z,37.50
2022-11-15T22:02:16.717Z,36.50
2022-11-15T22:04:45.950Z,39.00
2022-11-15T22:07:15.352Z,35.25
2022-11-15T22:09:44.680Z,34.25
2022-11-15T22:12:14.042Z,34.50
2022-11-15T22:14:43.439Z,40.00
2022-11-15T22:17:13.014Z,41.50
2022-11-15T22:19:52.278Z,31.75
2022-11-15T22:22:22.750Z,38.25
2022-11-15T22:24:52.004Z,39.75
2022-11-15T22:27:21.234Z,40.00
2022-11-15T22:29:50.464Z,37.50
2022-11-15T22:32:19.777Z,41.25
2022-11-15T22:34:49.021Z,38.50
2022-11-15T22:37:20.899Z,38.50
2022-11-15T22:39:51.189Z,41.25
2022-11-15T22:42:23.759Z,37.00
2022-11-15T22:44:53.873Z,43.75
2022-11-15T22:47:23.233Z,38.50
2022-11-15T22:49:52.597Z,37.75
2022-11-15T22:52:21.891Z,35.00
2022-11-15T22:54:51.172Z,41.75
2022-11-15T22:57:20.542Z,43.00
2022-11-15T22:59:49.795Z,42.50
2022-11-15T23:02:19.103Z,43.75
2022-11-15T23:04:48.362Z,43.75
2022-11-15T23:07:17.765Z,43.75
2022-11-15T23:09:51.820Z,39.75
2022-11-15T23:12:39.855Z,47.00
2022-11-15T23:15:09.359Z,46.00
2022-11-15T23:17:38.620Z,40.25
2022-11-15T23:20:36.500Z,39.25
2022-11-15T23:22:57.464Z,43.75
2022-11-15T23:25:26.748Z,38.00
2022-11-15T23:27:56.072Z,41.50
2022-11-15T23:30:43.184Z,46.25
2022-11-15T23:33:36.762Z,36.00
2022-11-15T23:36:06.245Z,42.00
2022-11-15T23:38:38.310Z,37.25
2022-11-15T23:41:08.027Z,38.50
2022-11-15T23:43:37.320Z,38.00
2022-11-15T23:46:06.623Z,45.00
2022-11-15T23:48:35.987Z,32.75
2022-11-15T23:51:05.573Z,36.25
2022-11-15T23:53:34.847Z,30.00
2022-11-15T23:56:05.087Z,36.00
2022-11-15T23:58:34.757Z,34.50
